sensor_id;sensor_type;location;lat;lon;timestamp;temperature;humidity
10911;DHT22;5508;49.150;11.030;2023-01-13T00:02:45;6.60;87.60
10911;DHT22;5508;49.150;11.030;2023-01-13T00:05:46;6.70;86.70
10911;DHT22;5508;49.150;11.030;2023-01-13T00:08:50;6.60;86.90
10911;DHT22;5508;49.150;11.030;2023-01-13T00:11:51;6.70;86.50
10911;DHT22;5508;49.150;11.030;2023-01-13T00:14:51;6.60;87.70
10911;DHT22;5508;49.150;11.030;2023-01-13T00:17:52;6.60;87.40
10911;DHT22;5508;49.150;11.030;2023-01-13T00:21:07;6.60;87.30
10911;DHT22;5508;49.150;11.030;2023-01-13T00:24:09;6.60;87.30
10911;DHT22;5508;49.150;11.030;2023-01-13T00:27:10;6.60;87.60
10911;DHT22;5508;49.150;11.030;2023-01-13T00:30:11;6.50;87.90
10911;DHT22;5508;49.150;11.030;2023-01-13T00:33:11;6.50;88.10
10911;DHT22;5508;49.150;11.030;2023-01-13T00:36:14;6.50;88.30
10911;DHT22;5508;49.150;11.030;2023-01-13T00:39:15;6.50;88.00
10911;DHT22;5508;49.150;11.030;2023-01-13T00:42:16;6.50;89.20
10911;DHT22;5508;49.150;11.030;2023-01-13T00:45:37;6.40;89.00
10911;DHT22;5508;49.150;11.030;2023-01-13T00:48:37;6.40;89.20
10911;DHT22;5508;49.150;11.030;2023-01-13T00:51:38;6.40;88.40
10911;DHT22;5508;49.150;11.030;2023-01-13T00:54:39;6.50;87.90
10911;DHT22;5508;49.150;11.030;2023-01-13T00:57:39;6.40;89.50
10911;DHT22;5508;49.150;11.030;2023-01-13T01:00:40;6.40;88.90
10911;DHT22;5508;49.150;11.030;2023-01-13T01:03:41;6.40;89.50
10911;DHT22;5508;49.150;11.030;2023-01-13T01:06:42;6.30;89.20
10911;DHT22;5508;49.150;11.030;2023-01-13T01:09:42;6.30;89.10
10911;DHT22;5508;49.150;11.030;2023-01-13T01:12:43;6.40;88.50
10911;DHT22;5508;49.150;11.030;2023-01-13T01:15:43;6.40;89.00
10911;DHT22;5508;49.150;11.030;2023-01-13T01:18:46;6.40;88.80
10911;DHT22;5508;49.150;11.030;2023-01-13T01:21:46;6.40;88.50
10911;DHT22;5508;49.150;11.030;2023-01-13T01:24:47;6.40;88.70
10911;DHT22;5508;49.150;11.030;2023-01-13T01:27:47;6.50;88.30
10911;DHT22;5508;49.150;11.030;2023-01-13T01:30:48;6.40;88.90
10911;DHT22;5508;49.150;11.030;2023-01-13T01:33:52;6.50;88.70
10911;DHT22;5508;49.150;11.030;2023-01-13T01:36:52;6.50;88.60
10911;DHT22;5508;49.150;11.030;2023-01-13T01:39:53;6.40;88.40
10911;DHT22;5508;49.150;11.030;2023-01-13T01:42:54;6.60;88.70
10911;DHT22;5508;49.150;11.030;2023-01-13T01:46:12;6.60;87.80
10911;DHT22;5508;49.150;11.030;2023-01-13T01:49:30;6.50;88.30
10911;DHT22;5508;49.150;11.030;2023-01-13T01:52:40;6.60;87.60
10911;DHT22;5508;49.150;11.030;2023-01-13T01:55:42;6.50;88.40
10911;DHT22;5508;49.150;11.030;2023-01-13T01:58:46;6.50;88.00
10911;DHT22;5508;49.150;11.030;2023-01-13T02:01:49;6.50;88.00
10911;DHT22;5508;49.150;11.030;2023-01-13T02:04:52;6.50;88.00
10911;DHT22;5508;49.150;11.030;2023-01-13T02:07:56;6.50;88.50
10911;DHT22;5508;49.150;11.030;2023-01-13T02:10:58;6.40;88.60
10911;DHT22;5508;49.150;11.030;2023-01-13T02:13:58;6.40;88.30
10911;DHT22;5508;49.150;11.030;2023-01-13T02:30:48;6.50;88.30
10911;DHT22;5508;49.150;11.030;2023-01-13T02:34:30;6.60;87.70
10911;DHT22;5508;49.150;11.030;2023-01-13T02:37:36;6.60;87.90
10911;DHT22;5508;49.150;11.030;2023-01-13T02:43:49;6.60;87.90
10911;DHT22;5508;49.150;11.030;2023-01-13T02:47:20;6.70;87.20
10911;DHT22;5508;49.150;11.030;2023-01-13T02:50:29;6.60;87.90
10911;DHT22;5508;49.150;11.030;2023-01-13T02:53:37;6.60;88.20
10911;DHT22;5508;49.150;11.030;2023-01-13T02:56:43;6.60;88.30
10911;DHT22;5508;49.150;11.030;2023-01-13T02:59:44;6.50;89.10
10911;DHT22;5508;49.150;11.030;2023-01-13T03:02:47;6.50;88.90
10911;DHT22;5508;49.150;11.030;2023-01-13T03:05:50;6.60;88.10
10911;DHT22;5508;49.150;11.030;2023-01-13T03:09:05;6.60;88.50
10911;DHT22;5508;49.150;11.030;2023-01-13T03:12:13;6.60;87.70
10911;DHT22;5508;49.150;11.030;2023-01-13T03:21:51;6.70;87.80
10911;DHT22;5508;49.150;11.030;2023-01-13T03:28:20;6.60;88.60
10911;DHT22;5508;49.150;11.030;2023-01-13T03:31:29;6.60;88.60
10911;DHT22;5508;49.150;11.030;2023-01-13T03:34:46;6.60;88.50
10911;DHT22;5508;49.150;11.030;2023-01-13T03:37:55;6.60;89.70
10911;DHT22;5508;49.150;11.030;2023-01-13T03:41:07;6.60;88.20
10911;DHT22;5508;49.150;11.030;2023-01-13T03:44:19;6.60;88.80
10911;DHT22;5508;49.150;11.030;2023-01-13T03:47:29;6.70;88.60
10911;DHT22;5508;49.150;11.030;2023-01-13T03:50:44;6.70;88.70
10911;DHT22;5508;49.150;11.030;2023-01-13T03:53:50;6.70;88.40
10911;DHT22;5508;49.150;11.030;2023-01-13T03:56:58;6.70;87.90
10911;DHT22;5508;49.150;11.030;2023-01-13T04:00:01;6.70;88.30
10911;DHT22;5508;49.150;11.030;2023-01-13T04:03:11;6.70;88.70
10911;DHT22;5508;49.150;11.030;2023-01-13T04:06:25;6.70;88.70
10911;DHT22;5508;49.150;11.030;2023-01-13T04:09:49;6.70;89.00
10911;DHT22;5508;49.150;11.030;2023-01-13T04:13:03;6.70;89.50
10911;DHT22;5508;49.150;11.030;2023-01-13T04:16:07;6.60;90.70
10911;DHT22;5508;49.150;11.030;2023-01-13T04:19:08;6.60;90.50
10911;DHT22;5508;49.150;11.030;2023-01-13T04:22:08;6.60;90.30
10911;DHT22;5508;49.150;11.030;2023-01-13T04:25:09;6.60;90.60
10911;DHT22;5508;49.150;11.030;2023-01-13T04:28:11;6.70;89.80
10911;DHT22;5508;49.150;11.030;2023-01-13T04:31:11;6.70;90.20
10911;DHT22;5508;49.150;11.030;2023-01-13T04:34:12;6.70;90.30
10911;DHT22;5508;49.150;11.030;2023-01-13T04:37:13;6.70;89.60
10911;DHT22;5508;49.150;11.030;2023-01-13T04:40:13;6.70;89.40
10911;DHT22;5508;49.150;11.030;2023-01-13T04:43:14;6.70;89.40
10911;DHT22;5508;49.150;11.030;2023-01-13T04:46:15;6.70;88.90
10911;DHT22;5508;49.150;11.030;2023-01-13T04:49:15;6.80;87.90
10911;DHT22;5508;49.150;11.030;2023-01-13T04:52:16;6.90;86.70
10911;DHT22;5508;49.150;11.030;2023-01-13T04:55:17;6.90;87.20
10911;DHT22;5508;49.150;11.030;2023-01-13T04:58:18;6.80;87.40
10911;DHT22;5508;49.150;11.030;2023-01-13T05:01:19;6.70;88.00
10911;DHT22;5508;49.150;11.030;2023-01-13T05:04:20;6.70;87.40
10911;DHT22;5508;49.150;11.030;2023-01-13T05:07:21;6.80;86.80
10911;DHT22;5508;49.150;11.030;2023-01-13T05:10:22;6.90;85.70
10911;DHT22;5508;49.150;11.030;2023-01-13T05:13:22;6.80;85.90
10911;DHT22;5508;49.150;11.030;2023-01-13T05:16:41;6.80;85.90
10911;DHT22;5508;49.150;11.030;2023-01-13T05:20:01;6.90;85.20
10911;DHT22;5508;49.150;11.030;2023-01-13T05:23:01;7.00;84.00
10911;DHT22;5508;49.150;11.030;2023-01-13T05:26:22;6.90;84.10
10911;DHT22;5508;49.150;11.030;2023-01-13T05:29:22;6.90;84.10
10911;DHT22;5508;49.150;11.030;2023-01-13T05:32:23;6.90;84.40
10911;DHT22;5508;49.150;11.030;2023-01-13T05:35:24;6.90;84.30
10911;DHT22;5508;49.150;11.030;2023-01-13T05:38:25;6.80;84.80
10911;DHT22;5508;49.150;11.030;2023-01-13T05:41:25;6.80;84.90
10911;DHT22;5508;49.150;11.030;2023-01-13T05:44:46;6.80;84.60
10911;DHT22;5508;49.150;11.030;2023-01-13T05:47:46;6.80;84.50
10911;DHT22;5508;49.150;11.030;2023-01-13T05:50:47;6.80;84.90
10911;DHT22;5508;49.150;11.030;2023-01-13T05:53:51;6.90;83.60
10911;DHT22;5508;49.150;11.030;2023-01-13T05:56:52;6.80;84.30
10911;DHT22;5508;49.150;11.030;2023-01-13T05:59:53;6.80;83.10
10911;DHT22;5508;49.150;11.030;2023-01-13T06:02:53;6.90;82.70
10911;DHT22;5508;49.150;11.030;2023-01-13T06:05:54;6.80;83.00
10911;DHT22;5508;49.150;11.030;2023-01-13T06:09:01;6.80;83.10
10911;DHT22;5508;49.150;11.030;2023-01-13T06:12:02;6.90;83.50
10911;DHT22;5508;49.150;11.030;2023-01-13T06:15:03;6.90;82.40
10911;DHT22;5508;49.150;11.030;2023-01-13T06:18:04;6.90;83.10
10911;DHT22;5508;49.150;11.030;2023-01-13T06:21:05;6.90;82.70
10911;DHT22;5508;49.150;11.030;2023-01-13T06:24:06;6.90;83.40
10911;DHT22;5508;49.150;11.030;2023-01-13T06:27:07;6.80;82.70
10911;DHT22;5508;49.150;11.030;2023-01-13T06:30:09;6.80;83.10
10911;DHT22;5508;49.150;11.030;2023-01-13T06:33:13;6.80;83.40
10911;DHT22;5508;49.150;11.030;2023-01-13T06:36:21;6.80;83.70
10911;DHT22;5508;49.150;11.030;2023-01-13T06:39:25;6.60;84.50
10911;DHT22;5508;49.150;11.030;2023-01-13T06:42:32;6.70;84.40
10911;DHT22;5508;49.150;11.030;2023-01-13T06:45:54;6.60;84.80
10911;DHT22;5508;49.150;11.030;2023-01-13T06:48:55;6.70;84.60
10911;DHT22;5508;49.150;11.030;2023-01-13T06:51:56;6.80;84.20
10911;DHT22;5508;49.150;11.030;2023-01-13T06:54:56;6.90;83.20
10911;DHT22;5508;49.150;11.030;2023-01-13T06:57:57;6.90;84.30
10911;DHT22;5508;49.150;11.030;2023-01-13T07:01:01;6.80;83.30
10911;DHT22;5508;49.150;11.030;2023-01-13T07:04:01;6.80;84.10
10911;DHT22;5508;49.150;11.030;2023-01-13T07:07:02;6.90;83.40
10911;DHT22;5508;49.150;11.030;2023-01-13T07:10:03;6.90;83.90
10911;DHT22;5508;49.150;11.030;2023-01-13T07:13:05;6.90;83.50
10911;DHT22;5508;49.150;11.030;2023-01-13T07:16:24;7.00;84.80
10911;DHT22;5508;49.150;11.030;2023-01-13T07:19:27;7.00;84.10
10911;DHT22;5508;49.150;11.030;2023-01-13T07:22:28;7.00;82.80
10911;DHT22;5508;49.150;11.030;2023-01-13T07:25:28;7.10;83.40
10911;DHT22;5508;49.150;11.030;2023-01-13T07:28:29;7.10;83.00
10911;DHT22;5508;49.150;11.030;2023-01-13T07:31:30;7.20;83.50
10911;DHT22;5508;49.150;11.030;2023-01-13T07:34:31;7.20;83.00
10911;DHT22;5508;49.150;11.030;2023-01-13T07:37:36;7.20;82.80
10911;DHT22;5508;49.150;11.030;2023-01-13T07:40:38;7.20;83.10
10911;DHT22;5508;49.150;11.030;2023-01-13T07:43:38;7.20;83.60
10911;DHT22;5508;49.150;11.030;2023-01-13T07:46:39;7.20;83.70
10911;DHT22;5508;49.150;11.030;2023-01-13T07:49:40;7.20;83.50
10911;DHT22;5508;49.150;11.030;2023-01-13T07:52:40;7.30;84.10
10911;DHT22;5508;49.150;11.030;2023-01-13T07:55:41;7.30;83.90
10911;DHT22;5508;49.150;11.030;2023-01-13T07:58:42;7.30;84.40
10911;DHT22;5508;49.150;11.030;2023-01-13T08:01:44;7.30;84.30
10911;DHT22;5508;49.150;11.030;2023-01-13T08:04:44;7.40;83.80
10911;DHT22;5508;49.150;11.030;2023-01-13T08:07:45;7.50;84.00
10911;DHT22;5508;49.150;11.030;2023-01-13T08:10:45;7.50;84.50
10911;DHT22;5508;49.150;11.030;2023-01-13T08:13:46;7.50;84.40
10911;DHT22;5508;49.150;11.030;2023-01-13T08:16:47;7.60;84.60
10911;DHT22;5508;49.150;11.030;2023-01-13T08:19:47;7.60;84.90
10911;DHT22;5508;49.150;11.030;2023-01-13T08:22:48;7.60;84.40
10911;DHT22;5508;49.150;11.030;2023-01-13T08:25:49;7.60;84.60
10911;DHT22;5508;49.150;11.030;2023-01-13T08:28:49;7.60;85.00
10911;DHT22;5508;49.150;11.030;2023-01-13T08:31:50;7.60;85.10
10911;DHT22;5508;49.150;11.030;2023-01-13T08:34:50;7.60;85.40
10911;DHT22;5508;49.150;11.030;2023-01-13T08:37:51;7.60;86.00
10911;DHT22;5508;49.150;11.030;2023-01-13T08:40:52;7.60;86.10
10911;DHT22;5508;49.150;11.030;2023-01-13T08:43:52;7.70;87.20
10911;DHT22;5508;49.150;11.030;2023-01-13T08:46:53;7.80;87.60
10911;DHT22;5508;49.150;11.030;2023-01-13T08:49:54;7.70;88.60
10911;DHT22;5508;49.150;11.030;2023-01-13T08:52:55;7.80;88.00
10911;DHT22;5508;49.150;11.030;2023-01-13T08:55:56;7.90;86.80
10911;DHT22;5508;49.150;11.030;2023-01-13T08:58:57;7.90;87.90
10911;DHT22;5508;49.150;11.030;2023-01-13T09:01:58;8.00;87.00
10911;DHT22;5508;49.150;11.030;2023-01-13T09:04:59;8.00;87.00
10911;DHT22;5508;49.150;11.030;2023-01-13T09:08:02;8.00;86.40
10911;DHT22;5508;49.150;11.030;2023-01-13T09:11:03;8.00;86.60
10911;DHT22;5508;49.150;11.030;2023-01-13T09:14:25;8.10;87.10
10911;DHT22;5508;49.150;11.030;2023-01-13T09:17:26;8.10;87.40
10911;DHT22;5508;49.150;11.030;2023-01-13T09:20:27;8.20;86.70
10911;DHT22;5508;49.150;11.030;2023-01-13T09:23:28;8.20;85.70
10911;DHT22;5508;49.150;11.030;2023-01-13T09:26:28;8.40;84.90
10911;DHT22;5508;49.150;11.030;2023-01-13T09:29:29;8.60;85.10
10911;DHT22;5508;49.150;11.030;2023-01-13T09:32:29;8.70;83.60
10911;DHT22;5508;49.150;11.030;2023-01-13T09:35:30;8.70;84.20
10911;DHT22;5508;49.150;11.030;2023-01-13T09:38:30;8.60;84.70
10911;DHT22;5508;49.150;11.030;2023-01-13T09:41:33;8.50;85.80
10911;DHT22;5508;49.150;11.030;2023-01-13T09:48:37;8.60;85.60
10911;DHT22;5508;49.150;11.030;2023-01-13T09:52:00;8.90;84.40
10911;DHT22;5508;49.150;11.030;2023-01-13T09:58:38;9.00;83.30
10911;DHT22;5508;49.150;11.030;2023-01-13T10:01:51;9.00;83.00
10911;DHT22;5508;49.150;11.030;2023-01-13T10:08:23;9.00;84.00
10911;DHT22;5508;49.150;11.030;2023-01-13T10:11:30;8.90;84.20
10911;DHT22;5508;49.150;11.030;2023-01-13T10:14:54;8.80;85.00
10911;DHT22;5508;49.150;11.030;2023-01-13T10:18:25;8.60;86.80
10911;DHT22;5508;49.150;11.030;2023-01-13T10:28:19;8.20;94.90
10911;DHT22;5508;49.150;11.030;2023-01-13T10:31:24;7.90;99.80
10911;DHT22;5508;49.150;11.030;2023-01-13T10:34:25;7.40;99.90
10911;DHT22;5508;49.150;11.030;2023-01-13T10:37:27;7.20;99.90
10911;DHT22;5508;49.150;11.030;2023-01-13T10:40:28;7.10;99.90
10911;DHT22;5508;49.150;11.030;2023-01-13T10:43:29;6.90;99.90
10911;DHT22;5508;49.150;11.030;2023-01-13T10:46:48;6.80;99.90
10911;DHT22;5508;49.150;11.030;2023-01-13T10:53:24;6.70;99.90
10911;DHT22;5508;49.150;11.030;2023-01-13T10:56:36;6.70;99.90
10911;DHT22;5508;49.150;11.030;2023-01-13T10:59:36;6.60;99.90
10911;DHT22;5508;49.150;11.030;2023-01-13T11:02:37;6.60;99.90
10911;DHT22;5508;49.150;11.030;2023-01-13T11:05:37;6.60;99.90
10911;DHT22;5508;49.150;11.030;2023-01-13T11:08:44;6.60;99.90
10911;DHT22;5508;49.150;11.030;2023-01-13T11:11:45;6.80;99.90
10911;DHT22;5508;49.150;11.030;2023-01-13T11:14:48;6.90;99.90
10911;DHT22;5508;49.150;11.030;2023-01-13T11:17:57;6.90;99.90
10911;DHT22;5508;49.150;11.030;2023-01-13T11:21:04;7.10;99.90
10911;DHT22;5508;49.150;11.030;2023-01-13T11:24:34;7.30;99.90
10911;DHT22;5508;49.150;11.030;2023-01-13T11:27:55;7.50;99.90
10911;DHT22;5508;49.150;11.030;2023-01-13T11:31:32;7.80;99.90
10911;DHT22;5508;49.150;11.030;2023-01-13T11:34:36;7.90;99.90
10911;DHT22;5508;49.150;11.030;2023-01-13T11:37:40;8.00;99.90
10911;DHT22;5508;49.150;11.030;2023-01-13T11:40:48;8.10;99.90
10911;DHT22;5508;49.150;11.030;2023-01-13T11:43:50;8.20;99.90
10911;DHT22;5508;49.150;11.030;2023-01-13T11:46:53;7.90;99.90
10911;DHT22;5508;49.150;11.030;2023-01-13T11:49:54;7.50;99.90
10911;DHT22;5508;49.150;11.030;2023-01-13T12:03:22;7.20;99.90
10911;DHT22;5508;49.150;11.030;2023-01-13T12:06:33;7.20;99.90
10911;DHT22;5508;49.150;11.030;2023-01-13T12:16:14;7.10;99.90
10911;DHT22;5508;49.150;11.030;2023-01-13T12:19:24;7.20;99.90
10911;DHT22;5508;49.150;11.030;2023-01-13T12:22:29;7.40;99.90
10911;DHT22;5508;49.150;11.030;2023-01-13T12:25:44;7.30;99.90
10911;DHT22;5508;49.150;11.030;2023-01-13T12:29:06;7.40;99.90
10911;DHT22;5508;49.150;11.030;2023-01-13T12:32:16;7.30;99.90
10911;DHT22;5508;49.150;11.030;2023-01-13T12:35:34;7.60;99.90
10911;DHT22;5508;49.150;11.030;2023-01-13T12:39:18;7.70;99.90
10911;DHT22;5508;49.150;11.030;2023-01-13T12:49:25;8.00;99.90
10911;DHT22;5508;49.150;11.030;2023-01-13T12:52:25;7.90;99.90
10911;DHT22;5508;49.150;11.030;2023-01-13T12:55:32;7.70;99.90
10911;DHT22;5508;49.150;11.030;2023-01-13T12:58:33;7.60;99.90
10911;DHT22;5508;49.150;11.030;2023-01-13T13:01:34;7.50;99.90
10911;DHT22;5508;49.150;11.030;2023-01-13T13:04:48;7.40;99.90
10911;DHT22;5508;49.150;11.030;2023-01-13T13:08:00;7.30;99.90
10911;DHT22;5508;49.150;11.030;2023-01-13T13:17:42;7.10;99.90
10911;DHT22;5508;49.150;11.030;2023-01-13T13:21:06;7.00;99.20
10911;DHT22;5508;49.150;11.030;2023-01-13T13:24:10;7.10;99.30
10911;DHT22;5508;49.150;11.030;2023-01-13T13:27:21;7.00;98.70
10911;DHT22;5508;49.150;11.030;2023-01-13T13:30:32;7.00;97.60
10911;DHT22;5508;49.150;11.030;2023-01-13T13:37:04;6.90;95.50
10911;DHT22;5508;49.150;11.030;2023-01-13T13:40:09;6.80;95.80
10911;DHT22;5508;49.150;11.030;2023-01-13T13:43:31;6.70;96.10
10911;DHT22;5508;49.150;11.030;2023-01-13T13:47:00;6.60;97.60
10911;DHT22;5508;49.150;11.030;2023-01-13T13:50:07;6.50;98.10
10911;DHT22;5508;49.150;11.030;2023-01-13T13:53:11;6.50;98.50
10911;DHT22;5508;49.150;11.030;2023-01-13T13:56:18;6.60;97.20
10911;DHT22;5508;49.150;11.030;2023-01-13T13:59:25;6.70;95.70
10911;DHT22;5508;49.150;11.030;2023-01-13T14:02:31;6.60;95.80
10911;DHT22;5508;49.150;11.030;2023-01-13T14:05:35;6.80;96.40
10911;DHT22;5508;49.150;11.030;2023-01-13T14:08:37;6.80;96.50
10911;DHT22;5508;49.150;11.030;2023-01-13T14:11:40;6.70;97.30
10911;DHT22;5508;49.150;11.030;2023-01-13T14:14:44;6.70;99.10
10911;DHT22;5508;49.150;11.030;2023-01-13T14:17:46;6.70;99.90
10911;DHT22;5508;49.150;11.030;2023-01-13T14:23:58;6.70;99.90
10911;DHT22;5508;49.150;11.030;2023-01-13T14:27:12;6.70;99.90
10911;DHT22;5508;49.150;11.030;2023-01-13T14:30:15;6.60;99.90
10911;DHT22;5508;49.150;11.030;2023-01-13T14:33:20;6.50;99.90
10911;DHT22;5508;49.150;11.030;2023-01-13T14:36:34;6.60;99.90
10911;DHT22;5508;49.150;11.030;2023-01-13T14:39:39;6.80;99.90
10911;DHT22;5508;49.150;11.030;2023-01-13T14:42:39;6.90;99.90
10911;DHT22;5508;49.150;11.030;2023-01-13T14:45:56;6.80;99.90
10911;DHT22;5508;49.150;11.030;2023-01-13T14:49:00;6.70;99.40
10911;DHT22;5508;49.150;11.030;2023-01-13T14:55:32;6.60;92.20
10911;DHT22;5508;49.150;11.030;2023-01-13T14:58:33;6.60;92.40
10911;DHT22;5508;49.150;11.030;2023-01-13T15:01:34;6.50;92.10
10911;DHT22;5508;49.150;11.030;2023-01-13T15:04:35;6.40;93.20
10911;DHT22;5508;49.150;11.030;2023-01-13T15:07:37;6.40;91.40
10911;DHT22;5508;49.150;11.030;2023-01-13T15:13:59;6.30;92.90
10911;DHT22;5508;49.150;11.030;2023-01-13T15:17:04;6.20;91.00
10911;DHT22;5508;49.150;11.030;2023-01-13T15:20:13;6.20;89.60
10911;DHT22;5508;49.150;11.030;2023-01-13T15:23:13;6.10;90.00
10911;DHT22;5508;49.150;11.030;2023-01-13T15:26:24;6.00;89.70
10911;DHT22;5508;49.150;11.030;2023-01-13T15:29:24;6.00;89.10
10911;DHT22;5508;49.150;11.030;2023-01-13T15:32:25;5.90;89.70
10911;DHT22;5508;49.150;11.030;2023-01-13T15:35:27;5.80;90.00
10911;DHT22;5508;49.150;11.030;2023-01-13T15:38:28;5.70;90.80
10911;DHT22;5508;49.150;11.030;2023-01-13T15:41:28;5.70;90.30
10911;DHT22;5508;49.150;11.030;2023-01-13T15:44:48;5.70;90.30
10911;DHT22;5508;49.150;11.030;2023-01-13T15:48:07;5.60;90.40
10911;DHT22;5508;49.150;11.030;2023-01-13T15:51:10;5.60;91.20
10911;DHT22;5508;49.150;11.030;2023-01-13T15:54:10;5.50;91.70
10911;DHT22;5508;49.150;11.030;2023-01-13T15:57:38;5.40;92.40
10911;DHT22;5508;49.150;11.030;2023-01-13T16:00:42;5.50;92.00
10911;DHT22;5508;49.150;11.030;2023-01-13T16:03:43;5.40;92.80
10911;DHT22;5508;49.150;11.030;2023-01-13T16:06:43;5.30;94.50
10911;DHT22;5508;49.150;11.030;2023-01-13T16:09:44;5.30;94.50
10911;DHT22;5508;49.150;11.030;2023-01-13T16:12:45;5.20;95.10
10911;DHT22;5508;49.150;11.030;2023-01-13T16:15:48;5.20;94.60
10911;DHT22;5508;49.150;11.030;2023-01-13T16:18:50;5.40;92.80
10911;DHT22;5508;49.150;11.030;2023-01-13T16:21:51;5.40;93.50
10911;DHT22;5508;49.150;11.030;2023-01-13T16:24:52;5.50;92.60
10911;DHT22;5508;49.150;11.030;2023-01-13T16:27:53;5.50;93.20
10911;DHT22;5508;49.150;11.030;2023-01-13T16:30:53;5.50;92.80
10911;DHT22;5508;49.150;11.030;2023-01-13T16:33:54;5.40;93.20
10911;DHT22;5508;49.150;11.030;2023-01-13T16:36:54;5.30;93.30
10911;DHT22;5508;49.150;11.030;2023-01-13T16:39:55;5.40;93.50
10911;DHT22;5508;49.150;11.030;2023-01-13T16:42:56;5.30;94.10
10911;DHT22;5508;49.150;11.030;2023-01-13T16:45:57;5.30;93.50
10911;DHT22;5508;49.150;11.030;2023-01-13T16:49:03;5.40;92.30
10911;DHT22;5508;49.150;11.030;2023-01-13T16:52:04;5.40;92.20
10911;DHT22;5508;49.150;11.030;2023-01-13T16:55:05;5.40;92.10
10911;DHT22;5508;49.150;11.030;2023-01-13T16:58:17;5.40;91.50
10911;DHT22;5508;49.150;11.030;2023-01-13T17:01:29;5.50;91.10
10911;DHT22;5508;49.150;11.030;2023-01-13T17:04:30;5.40;90.70
10911;DHT22;5508;49.150;11.030;2023-01-13T17:07:31;5.40;89.80
10911;DHT22;5508;49.150;11.030;2023-01-13T17:10:32;5.30;90.60
10911;DHT22;5508;49.150;11.030;2023-01-13T17:13:32;5.30;90.70
10911;DHT22;5508;49.150;11.030;2023-01-13T17:16:33;5.20;91.00
10911;DHT22;5508;49.150;11.030;2023-01-13T17:19:33;5.10;92.80
10911;DHT22;5508;49.150;11.030;2023-01-13T17:22:34;5.10;92.60
10911;DHT22;5508;49.150;11.030;2023-01-13T17:25:34;4.90;93.70
10911;DHT22;5508;49.150;11.030;2023-01-13T17:28:35;4.70;94.90
10911;DHT22;5508;49.150;11.030;2023-01-13T17:31:36;4.70;96.20
10911;DHT22;5508;49.150;11.030;2023-01-13T17:34:36;4.70;96.10
10911;DHT22;5508;49.150;11.030;2023-01-13T17:37:39;4.80;95.80
10911;DHT22;5508;49.150;11.030;2023-01-13T17:40:39;4.70;95.50
10911;DHT22;5508;49.150;11.030;2023-01-13T17:43:40;4.70;96.30
10911;DHT22;5508;49.150;11.030;2023-01-13T17:46:41;4.70;95.90
10911;DHT22;5508;49.150;11.030;2023-01-13T17:49:42;4.70;95.90
10911;DHT22;5508;49.150;11.030;2023-01-13T17:52:43;4.70;95.80
10911;DHT22;5508;49.150;11.030;2023-01-13T17:55:54;4.50;96.60
10911;DHT22;5508;49.150;11.030;2023-01-13T17:58:54;4.50;96.80
10911;DHT22;5508;49.150;11.030;2023-01-13T18:01:55;4.40;96.60
10911;DHT22;5508;49.150;11.030;2023-01-13T18:04:56;4.40;97.10
10911;DHT22;5508;49.150;11.030;2023-01-13T18:07:56;4.40;96.80
10911;DHT22;5508;49.150;11.030;2023-01-13T18:10:57;4.30;97.30
10911;DHT22;5508;49.150;11.030;2023-01-13T18:13:58;4.40;97.10
10911;DHT22;5508;49.150;11.030;2023-01-13T18:17:02;4.40;96.60
10911;DHT22;5508;49.150;11.030;2023-01-13T18:20:02;4.40;96.40
10911;DHT22;5508;49.150;11.030;2023-01-13T18:23:21;4.40;96.10
10911;DHT22;5508;49.150;11.030;2023-01-13T18:26:41;4.40;95.80
10911;DHT22;5508;49.150;11.030;2023-01-13T18:30:01;4.50;95.30
10911;DHT22;5508;49.150;11.030;2023-01-13T18:33:02;4.50;95.00
10911;DHT22;5508;49.150;11.030;2023-01-13T18:36:06;4.50;95.40
10911;DHT22;5508;49.150;11.030;2023-01-13T18:39:07;4.50;95.00
10911;DHT22;5508;49.150;11.030;2023-01-13T18:42:09;4.40;95.30
10911;DHT22;5508;49.150;11.030;2023-01-13T18:45:30;4.30;96.40
10911;DHT22;5508;49.150;11.030;2023-01-13T18:48:31;4.40;96.10
10911;DHT22;5508;49.150;11.030;2023-01-13T18:51:31;4.40;95.60
10911;DHT22;5508;49.150;11.030;2023-01-13T18:54:32;4.40;95.70
10911;DHT22;5508;49.150;11.030;2023-01-13T18:57:33;4.40;96.20
10911;DHT22;5508;49.150;11.030;2023-01-13T19:00:38;4.30;96.60
10911;DHT22;5508;49.150;11.030;2023-01-13T19:03:38;4.30;96.40
10911;DHT22;5508;49.150;11.030;2023-01-13T19:06:41;4.20;97.10
10911;DHT22;5508;49.150;11.030;2023-01-13T19:09:52;4.20;97.10
10911;DHT22;5508;49.150;11.030;2023-01-13T19:12:54;4.20;97.40
10911;DHT22;5508;49.150;11.030;2023-01-13T19:15:55;4.20;97.30
10911;DHT22;5508;49.150;11.030;2023-01-13T19:18:55;4.30;97.20
10911;DHT22;5508;49.150;11.030;2023-01-13T19:21:56;4.20;97.20
10911;DHT22;5508;49.150;11.030;2023-01-13T19:24:58;4.00;98.40
10911;DHT22;5508;49.150;11.030;2023-01-13T19:27:58;4.10;98.80
10911;DHT22;5508;49.150;11.030;2023-01-13T19:31:01;4.20;97.90
10911;DHT22;5508;49.150;11.030;2023-01-13T19:34:02;4.30;98.00
10911;DHT22;5508;49.150;11.030;2023-01-13T19:37:03;4.40;97.80
10911;DHT22;5508;49.150;11.030;2023-01-13T19:40:06;4.40;97.40
10911;DHT22;5508;49.150;11.030;2023-01-13T19:43:08;4.50;97.00
10911;DHT22;5508;49.150;11.030;2023-01-13T19:46:27;4.60;95.50
10911;DHT22;5508;49.150;11.030;2023-01-13T19:49:29;4.70;95.00
10911;DHT22;5508;49.150;11.030;2023-01-13T19:52:29;4.80;94.40
10911;DHT22;5508;49.150;11.030;2023-01-13T19:55:30;5.00;92.90
10911;DHT22;5508;49.150;11.030;2023-01-13T19:58:31;5.10;92.40
10911;DHT22;5508;49.150;11.030;2023-01-13T20:01:32;5.30;90.60
10911;DHT22;5508;49.150;11.030;2023-01-13T20:04:35;5.40;89.90
10911;DHT22;5508;49.150;11.030;2023-01-13T20:07:38;5.40;89.20
10911;DHT22;5508;49.150;11.030;2023-01-13T20:10:39;5.50;88.80
10911;DHT22;5508;49.150;11.030;2023-01-13T20:13:40;5.50;89.10
10911;DHT22;5508;49.150;11.030;2023-01-13T20:16:41;5.50;88.80
10911;DHT22;5508;49.150;11.030;2023-01-13T20:19:41;5.60;88.00
10911;DHT22;5508;49.150;11.030;2023-01-13T20:22:42;5.60;89.30
10911;DHT22;5508;49.150;11.030;2023-01-13T20:25:43;5.50;88.70
10911;DHT22;5508;49.150;11.030;2023-01-13T20:28:44;5.60;88.10
10911;DHT22;5508;49.150;11.030;2023-01-13T20:31:45;5.60;89.10
10911;DHT22;5508;49.150;11.030;2023-01-13T20:34:49;5.40;89.60
10911;DHT22;5508;49.150;11.030;2023-01-13T20:37:49;5.50;89.70
10911;DHT22;5508;49.150;11.030;2023-01-13T20:41:00;5.50;89.30
10911;DHT22;5508;49.150;11.030;2023-01-13T20:44:20;5.40;89.50
10911;DHT22;5508;49.150;11.030;2023-01-13T20:47:21;5.30;91.00
10911;DHT22;5508;49.150;11.030;2023-01-13T20:50:22;5.30;91.30
10911;DHT22;5508;49.150;11.030;2023-01-13T20:53:22;5.20;92.50
10911;DHT22;5508;49.150;11.030;2023-01-13T20:56:23;5.20;93.90
10911;DHT22;5508;49.150;11.030;2023-01-13T20:59:24;5.20;93.80
10911;DHT22;5508;49.150;11.030;2023-01-13T21:02:25;5.20;94.90
10911;DHT22;5508;49.150;11.030;2023-01-13T21:05:25;5.10;95.90
10911;DHT22;5508;49.150;11.030;2023-01-13T21:08:27;5.10;97.00
10911;DHT22;5508;49.150;11.030;2023-01-13T21:11:28;5.10;96.80
10911;DHT22;5508;49.150;11.030;2023-01-13T21:14:47;5.10;97.10
10911;DHT22;5508;49.150;11.030;2023-01-13T21:18:06;5.10;97.10